7M8 weather

Rector Airport
Rector, Arkansas, United States

Public forecast

Using degrees Fahrenheit for public forecast. Weather courtesy of forecast.io.

Closest aviation weather report (METAR) to Rector Airport

Closest report is Kennett Memorial Airport, 13.8 nm (25.5 km) E. Retrieved 2020/05/25 13:15 UTC (3 minutes ago):

KTKX 251315Z AUTO 16007KT 10SM CLR 25/22 A2996 RMK AO2

Closest aviation forecast (TAF) to Rector Airport

Closest forecast is Jonesboro Municipal Airport, 29.7 nm (55.0 km) SSW. Retrieved 2020/05/25 12:33 UTC (45 minutes ago):

TAF KJBR 251130Z 2512/2612 VRB04KT P6SM SCT250 FM251500 17010KT P6SM SCT035 BKN250 FM260100 15007KT P6SM VCSH SCT050 BKN080 BKN250 AMD NOT SKED